createdAt,value
2022-12-14T00:02:49.404Z,76.80
2022-12-14T00:06:01.416Z,76.50
2022-12-14T00:09:13.481Z,80.18
2022-12-14T00:12:25.316Z,80.95
2022-12-14T00:15:37.849Z,72.85
2022-12-14T00:18:54.982Z,79.38
2022-12-14T00:22:06.864Z,71.15
2022-12-14T00:25:18.924Z,75.18
2022-12-14T00:28:30.873Z,79.63
2022-12-14T00:31:42.684Z,69.85
2022-12-14T00:34:54.666Z,74.00
2022-12-14T00:38:06.579Z,72.53
2022-12-14T00:41:19.011Z,74.38
2022-12-14T00:44:31.394Z,74.55
2022-12-14T00:47:43.182Z,77.18
2022-12-14T00:50:56.566Z,75.05
2022-12-14T00:54:08.393Z,72.83
2022-12-14T00:57:20.543Z,74.60
2022-12-14T01:00:32.314Z,75.18
2022-12-14T01:03:44.189Z,78.98
2022-12-14T01:06:57.663Z,82.60
2022-12-14T01:10:10.627Z,79.90
2022-12-14T01:13:24.240Z,80.00
2022-12-14T01:16:36.380Z,80.25
2022-12-14T01:19:49.255Z,77.23
2022-12-14T01:23:03.241Z,82.35
2022-12-14T01:26:16.204Z,84.13
2022-12-14T01:29:28.360Z,82.85
2022-12-14T01:32:41.811Z,79.15
2022-12-14T01:35:53.583Z,81.30
2022-12-14T01:39:09.559Z,82.93
2022-12-14T01:42:22.726Z,83.15
2022-12-14T01:45:35.085Z,80.53
2022-12-14T01:48:46.927Z,76.50
2022-12-14T01:52:04.264Z,78.90
2022-12-14T01:55:20.761Z,80.75
2022-12-14T01:58:34.469Z,78.30
2022-12-14T02:01:49.083Z,78.60
2022-12-14T02:05:05.573Z,76.93
2022-12-14T02:08:18.443Z,83.08
2022-12-14T02:11:39.222Z,84.83
2022-12-14T02:14:51.890Z,82.45
2022-12-14T02:18:05.328Z,77.38
2022-12-14T02:21:36.960Z,79.95
2022-12-14T02:25:24.641Z,88.40
2022-12-14T02:29:02.992Z,84.70
2022-12-14T02:32:42.398Z,84.05
2022-12-14T02:35:59.661Z,80.43
2022-12-14T02:39:18.593Z,79.78
2022-12-14T02:42:38.552Z,87.08
2022-12-14T02:45:54.879Z,80.80
2022-12-14T02:52:26.872Z,80.73
2022-12-14T02:55:43.114Z,94.15
2022-12-14T02:58:56.966Z,84.23
2022-12-14T03:02:10.568Z,87.05
2022-12-14T03:05:23.500Z,93.23
2022-12-14T03:08:38.968Z,107.43
2022-12-14T03:11:56.314Z,88.65
2022-12-14T03:15:11.959Z,83.73
2022-12-14T03:18:28.391Z,90.68
2022-12-14T03:21:44.202Z,86.50
2022-12-14T03:25:01.395Z,85.07
2022-12-14T03:28:17.708Z,95.65
2022-12-14T03:31:35.978Z,92.78
2022-12-14T03:34:53.235Z,92.75
2022-12-14T03:38:11.283Z,96.23
2022-12-14T03:41:30.815Z,92.25
2022-12-14T03:44:49.327Z,95.65
2022-12-14T03:48:10.984Z,95.90
2022-12-14T03:51:28.411Z,94.93
2022-12-14T03:54:49.523Z,96.33
2022-12-14T03:58:15.593Z,95.10
2022-12-14T04:01:34.840Z,90.40
2022-12-14T04:04:52.137Z,97.25
2022-12-14T04:08:10.981Z,92.65
2022-12-14T04:11:39.203Z,97.05
2022-12-14T04:15:10.670Z,92.48
2022-12-14T04:18:38.198Z,96.83
2022-12-14T04:21:55.211Z,100.48
2022-12-14T04:25:26.508Z,96.80
2022-12-14T04:28:58.567Z,99.30
2022-12-14T04:32:15.555Z,96.60
2022-12-14T04:35:33.540Z,90.88
2022-12-14T04:38:48.591Z,96.20
2022-12-14T04:42:04.704Z,85.92
2022-12-14T04:45:22.527Z,85.15
2022-12-14T04:48:41.495Z,92.58
2022-12-14T04:52:04.991Z,89.30
2022-12-14T04:55:19.510Z,85.95
2022-12-14T04:58:34.884Z,84.45
2022-12-14T05:01:55.981Z,82.25
2022-12-14T05:05:14.798Z,79.75
2022-12-14T05:08:35.597Z,80.15
2022-12-14T05:11:55.058Z,79.25
2022-12-14T05:15:13.454Z,78.00
2022-12-14T05:18:26.171Z,80.20
2022-12-14T05:21:54.033Z,76.25
2022-12-14T05:25:05.843Z,78.55
2022-12-14T05:28:19.369Z,79.53
2022-12-14T05:31:32.052Z,80.45
2022-12-14T05:34:44.151Z,81.78
2022-12-14T05:37:56.182Z,84.45
2022-12-14T05:41:08.398Z,78.98
2022-12-14T05:44:20.367Z,83.83
2022-12-14T05:47:32.937Z,78.13
2022-12-14T05:50:44.819Z,87.00
2022-12-14T05:53:57.149Z,87.43
2022-12-14T05:57:09.892Z,81.15
2022-12-14T06:00:23.577Z,86.35
2022-12-14T06:03:35.692Z,88.63
2022-12-14T06:06:47.907Z,84.67
2022-12-14T06:10:02.659Z,84.20
2022-12-14T06:13:14.567Z,91.18
2022-12-14T06:16:29.732Z,86.23
2022-12-14T06:19:42.532Z,90.28
2022-12-14T06:22:56.566Z,88.80
2022-12-14T06:26:08.714Z,96.35
2022-12-14T06:29:24.305Z,97.20
2022-12-14T06:32:36.528Z,97.40
2022-12-14T06:35:52.158Z,88.20
2022-12-14T06:39:07.943Z,97.70
2022-12-14T06:42:19.863Z,97.20
2022-12-14T06:45:32.344Z,103.43
2022-12-14T06:48:44.733Z,100.13
2022-12-14T06:51:57.797Z,132.78
2022-12-14T06:55:11.690Z,100.65
2022-12-14T06:58:25.754Z,103.28
2022-12-14T07:01:37.836Z,105.68
2022-12-14T07:04:50.663Z,101.75
2022-12-14T07:08:03.080Z,112.68
2022-12-14T07:11:17.667Z,111.18
2022-12-14T07:14:29.628Z,106.73
2022-12-14T07:17:43.163Z,103.13
2022-12-14T07:21:05.100Z,104.55
2022-12-14T07:24:17.613Z,111.58
2022-12-14T07:27:29.780Z,101.55
2022-12-14T07:30:41.753Z,116.18
2022-12-14T07:33:56.079Z,160.18
2022-12-14T07:37:08.379Z,107.13
2022-12-14T07:40:21.625Z,102.85
2022-12-14T07:43:33.591Z,102.93
2022-12-14T07:46:46.674Z,104.93
2022-12-14T07:49:58.960Z,108.28
2022-12-14T07:53:11.584Z,102.95
2022-12-14T07:56:26.746Z,107.20
2022-12-14T07:59:39.223Z,106.58
2022-12-14T08:02:51.575Z,106.30
2022-12-14T08:06:03.681Z,112.65
2022-12-14T08:09:17.424Z,106.18
2022-12-14T08:12:29.680Z,102.00
2022-12-14T08:15:45.789Z,107.65
2022-12-14T08:18:59.157Z,103.98
2022-12-14T08:22:11.823Z,121.33
2022-12-14T08:25:24.244Z,115.75
2022-12-14T08:28:38.548Z,99.78
2022-12-14T08:31:50.917Z,226.00
2022-12-14T08:35:02.812Z,109.13
2022-12-14T08:38:15.483Z,101.00
2022-12-14T08:41:28.044Z,95.08
2022-12-14T08:44:39.990Z,92.33
2022-12-14T08:47:51.981Z,99.28
2022-12-14T08:51:09.735Z,92.68
2022-12-14T08:54:24.286Z,101.25
2022-12-14T08:57:36.194Z,97.83
2022-12-14T09:00:48.376Z,96.65
2022-12-14T09:04:00.257Z,93.68
2022-12-14T09:07:12.154Z,115.60
2022-12-14T09:10:24.508Z,112.78
2022-12-14T09:13:37.650Z,97.58
2022-12-14T09:16:49.744Z,94.78
2022-12-14T09:20:02.245Z,95.80
2022-12-14T09:23:14.146Z,91.38
2022-12-14T09:26:27.953Z,103.23
2022-12-14T09:29:40.419Z,98.98
2022-12-14T09:32:52.427Z,88.40
2022-12-14T09:36:09.777Z,93.75
2022-12-14T09:39:22.033Z,104.15
2022-12-14T09:42:58.062Z,98.18
2022-12-14T09:46:22.468Z,96.58
2022-12-14T09:49:38.859Z,98.43
2022-12-14T09:52:55.513Z,101.33
2022-12-14T09:56:09.107Z,92.28
2022-12-14T09:59:23.762Z,86.53
2022-12-14T10:02:47.191Z,82.58
2022-12-14T10:06:17.789Z,75.80
2022-12-14T10:09:37.399Z,79.38
2022-12-14T10:12:59.440Z,86.08
2022-12-14T10:16:22.773Z,80.30
2022-12-14T10:19:46.494Z,81.58
2022-12-14T10:23:00.442Z,85.58
2022-12-14T10:26:17.078Z,82.23
2022-12-14T10:29:37.311Z,88.28
2022-12-14T10:32:53.628Z,82.53
2022-12-14T10:36:11.987Z,107.40
2022-12-14T10:39:34.634Z,113.53
2022-12-14T10:42:53.630Z,84.60
2022-12-14T10:46:14.297Z,83.88
2022-12-14T10:49:31.110Z,91.93
2022-12-14T10:52:46.508Z,83.53
2022-12-14T10:56:03.114Z,90.55
2022-12-14T10:59:39.707Z,95.10
2022-12-14T11:02:51.805Z,97.03
2022-12-14T11:06:09.114Z,97.78
2022-12-14T11:09:30.366Z,100.88
2022-12-14T11:12:42.960Z,96.38
2022-12-14T11:15:57.537Z,95.40
2022-12-14T11:19:15.562Z,89.98
2022-12-14T11:22:27.679Z,92.70
2022-12-14T11:25:52.190Z,90.48
2022-12-14T11:29:06.668Z,94.75
2022-12-14T11:32:28.520Z,94.65
2022-12-14T11:35:40.764Z,92.43
2022-12-14T11:39:02.142Z,91.10
2022-12-14T11:42:19.874Z,106.05
2022-12-14T11:45:40.526Z,94.05
2022-12-14T11:48:55.742Z,88.50
2022-12-14T11:52:15.445Z,92.25
2022-12-14T11:55:30.454Z,86.03
2022-12-14T11:58:47.683Z,99.63
2022-12-14T12:01:59.999Z,97.98
2022-12-14T12:05:15.945Z,94.55
2022-12-14T12:08:32.090Z,95.90
2022-12-14T12:11:48.481Z,93.95
2022-12-14T12:15:04.464Z,97.93
2022-12-14T12:18:21.245Z,98.75
2022-12-14T12:25:23.633Z,97.18
2022-12-14T12:28:14.777Z,99.88
2022-12-14T12:31:33.882Z,101.10
2022-12-14T12:34:52.028Z,95.22
2022-12-14T12:38:10.123Z,100.98
2022-12-14T12:41:30.691Z,96.63
2022-12-14T12:44:53.611Z,97.30
2022-12-14T12:48:10.353Z,107.25
2022-12-14T12:54:40.541Z,97.28
2022-12-14T12:57:56.470Z,104.70
2022-12-14T13:01:15.534Z,99.57
2022-12-14T13:04:38.533Z,97.95
2022-12-14T13:07:54.857Z,101.33
2022-12-14T13:11:27.573Z,107.05
2022-12-14T13:14:32.546Z,106.55
2022-12-14T13:17:50.444Z,107.33
2022-12-14T13:21:03.713Z,113.45
2022-12-14T13:24:22.440Z,114.13
2022-12-14T13:28:10.094Z,111.88
2022-12-14T13:31:32.891Z,106.23
2022-12-14T13:34:55.523Z,101.65
2022-12-14T13:38:33.376Z,106.95
2022-12-14T13:41:49.387Z,126.00
2022-12-14T13:45:08.202Z,113.35
2022-12-14T13:48:28.865Z,107.78
2022-12-14T13:51:44.796Z,104.88
2022-12-14T13:54:59.821Z,111.68
2022-12-14T13:58:23.919Z,110.95
2022-12-14T14:02:05.884Z,115.55
2022-12-14T14:05:50.125Z,117.25
2022-12-14T14:09:03.360Z,118.78
2022-12-14T14:12:48.274Z,116.95
2022-12-14T14:19:26.909Z,118.60
2022-12-14T14:22:38.787Z,109.88
2022-12-14T14:25:55.985Z,109.58
2022-12-14T14:29:25.024Z,117.73
2022-12-14T14:32:53.794Z,107.48
2022-12-14T14:36:24.099Z,104.30
2022-12-14T14:40:05.934Z,118.68
2022-12-14T14:43:06.146Z,113.33
2022-12-14T14:46:23.203Z,115.70
2022-12-14T14:49:38.621Z,107.80
2022-12-14T14:53:19.806Z,108.23
2022-12-14T14:56:51.775Z,109.68
2022-12-14T15:00:08.558Z,110.45
2022-12-14T15:06:39.301Z,122.45
2022-12-14T15:09:58.129Z,115.05
2022-12-14T15:13:15.956Z,115.70
2022-12-14T15:16:37.556Z,119.58
2022-12-14T15:19:57.115Z,121.68
2022-12-14T15:23:11.566Z,116.83
2022-12-14T15:26:28.918Z,125.70
2022-12-14T15:29:41.305Z,122.83
2022-12-14T15:32:59.008Z,124.38
2022-12-14T15:36:16.123Z,112.48
2022-12-14T15:39:44.261Z,116.88
2022-12-14T15:42:59.638Z,131.45
2022-12-14T15:46:21.253Z,123.98
2022-12-14T15:49:33.590Z,122.90
2022-12-14T15:52:46.708Z,125.38
2022-12-14T15:56:03.979Z,124.90
2022-12-14T15:59:23.053Z,124.48
2022-12-14T16:02:39.757Z,117.50
2022-12-14T16:05:52.216Z,124.08
2022-12-14T16:09:10.004Z,125.95
2022-12-14T16:12:28.923Z,120.33
2022-12-14T16:15:41.918Z,120.93
2022-12-14T16:19:20.257Z,131.85
2022-12-14T16:22:27.912Z,126.70
2022-12-14T16:25:44.817Z,139.55
2022-12-14T16:29:13.736Z,118.60
2022-12-14T16:32:28.785Z,129.08
2022-12-14T16:35:43.380Z,125.08
2022-12-14T16:39:06.098Z,123.43
2022-12-14T16:42:28.497Z,123.53
2022-12-14T16:46:16.314Z,119.28
2022-12-14T16:49:44.258Z,115.70
2022-12-14T16:53:25.947Z,120.68
2022-12-14T16:56:51.117Z,114.30
2022-12-14T17:00:10.206Z,109.33
2022-12-14T17:03:34.803Z,122.23
2022-12-14T17:07:07.150Z,105.83
2022-12-14T17:10:34.313Z,114.63
2022-12-14T17:13:54.932Z,113.75
2022-12-14T17:17:12.880Z,113.05
2022-12-14T17:20:29.291Z,111.68
2022-12-14T17:23:44.960Z,109.30
2022-12-14T17:26:57.878Z,113.68
2022-12-14T17:30:11.779Z,112.83
2022-12-14T17:33:24.980Z,119.33
2022-12-14T17:36:37.921Z,123.13
2022-12-14T17:39:50.439Z,115.43
2022-12-14T17:43:05.105Z,111.70
2022-12-14T17:46:19.545Z,107.15
2022-12-14T17:49:39.305Z,112.43
2022-12-14T17:52:54.188Z,120.35
2022-12-14T17:56:07.354Z,106.53
2022-12-14T17:59:19.310Z,116.55
2022-12-14T18:02:38.107Z,109.15
2022-12-14T18:05:53.200Z,112.03
2022-12-14T18:09:05.629Z,115.38
2022-12-14T18:12:23.574Z,107.98
2022-12-14T18:15:44.019Z,109.28
2022-12-14T18:18:58.228Z,108.73
2022-12-14T18:22:11.442Z,107.38
2022-12-14T18:25:33.212Z,103.85
2022-12-14T18:28:46.396Z,109.25
2022-12-14T18:31:58.754Z,117.68
2022-12-14T18:35:13.713Z,112.53
2022-12-14T18:38:26.059Z,110.98
2022-12-14T18:41:38.491Z,107.33
2022-12-14T18:44:50.491Z,112.70
2022-12-14T18:48:03.802Z,111.63
2022-12-14T18:51:21.834Z,101.35
2022-12-14T18:54:33.998Z,107.83
2022-12-14T18:57:46.543Z,101.90
2022-12-14T19:01:02.678Z,105.13
2022-12-14T19:04:14.930Z,109.40
2022-12-14T19:07:26.990Z,97.90
2022-12-14T19:10:40.186Z,98.98
2022-12-14T19:13:52.394Z,101.83
2022-12-14T19:17:04.377Z,104.33
2022-12-14T19:20:19.758Z,101.70
2022-12-14T19:23:32.113Z,96.85
2022-12-14T19:26:49.534Z,102.83
2022-12-14T19:30:03.113Z,104.28
2022-12-14T19:33:15.767Z,96.55
2022-12-14T19:36:28.392Z,107.80
2022-12-14T19:39:40.704Z,105.00
2022-12-14T19:42:53.570Z,109.88
2022-12-14T19:46:05.930Z,107.98
2022-12-14T19:49:18.647Z,112.15
2022-12-14T19:52:30.844Z,110.58
2022-12-14T19:55:42.935Z,118.75
2022-12-14T19:58:56.855Z,117.70
2022-12-14T20:02:11.518Z,113.33
2022-12-14T20:05:27.337Z,117.13
2022-12-14T20:08:41.252Z,110.00
2022-12-14T20:11:53.478Z,110.80
2022-12-14T20:15:05.724Z,102.58
2022-12-14T20:18:17.629Z,101.43
2022-12-14T20:21:30.714Z,102.00
2022-12-14T20:24:46.345Z,102.68
2022-12-14T20:28:00.334Z,105.03
2022-12-14T20:31:20.461Z,101.23
2022-12-14T20:34:34.279Z,108.68
2022-12-14T20:37:46.757Z,117.15
2022-12-14T20:40:59.085Z,110.48
2022-12-14T20:44:16.256Z,108.18
2022-12-14T20:47:28.489Z,100.40
2022-12-14T20:50:40.853Z,96.65
2022-12-14T20:54:05.076Z,98.35
2022-12-14T20:57:23.936Z,91.03
2022-12-14T21:00:59.552Z,95.08
2022-12-14T21:04:18.129Z,94.83
2022-12-14T21:07:40.099Z,94.13
2022-12-14T21:11:11.210Z,82.75
2022-12-14T21:14:34.681Z,69.13
2022-12-14T21:17:53.815Z,68.05
2022-12-14T21:21:26.452Z,72.28
2022-12-14T21:28:31.860Z,60.90
2022-12-14T21:32:07.647Z,63.55
2022-12-14T21:35:36.301Z,63.55
2022-12-14T21:38:49.102Z,66.15
2022-12-14T21:42:16.980Z,63.00
2022-12-14T21:45:29.119Z,68.70
2022-12-14T21:48:42.659Z,63.75
2022-12-14T21:51:56.745Z,64.45
2022-12-14T21:55:09.290Z,61.13
2022-12-14T21:58:23.784Z,47.80
2022-12-14T22:01:35.798Z,55.60
2022-12-14T22:04:48.661Z,42.28
2022-12-14T22:08:00.615Z,46.60
2022-12-14T22:11:13.230Z,48.68
2022-12-14T22:14:28.633Z,38.43
2022-12-14T22:17:40.491Z,44.40
2022-12-14T22:20:52.781Z,37.43
2022-12-14T22:24:04.770Z,36.05
2022-12-14T22:27:17.322Z,43.18
2022-12-14T22:30:31.814Z,35.00
2022-12-14T22:33:43.380Z,42.70
2022-12-14T22:36:55.964Z,37.55
2022-12-14T22:40:08.362Z,32.50
2022-12-14T22:43:25.851Z,34.53
2022-12-14T22:46:35.906Z,37.65
2022-12-14T22:49:47.946Z,36.03
2022-12-14T22:52:59.953Z,34.90
2022-12-14T22:56:18.083Z,32.90
2022-12-14T22:59:34.444Z,33.80
2022-12-14T23:02:48.175Z,37.60
2022-12-14T23:06:02.282Z,39.10
2022-12-14T23:09:29.432Z,34.15
2022-12-14T23:12:55.947Z,35.60
2022-12-14T23:16:23.428Z,35.90
2022-12-14T23:19:50.149Z,37.93
2022-12-14T23:23:17.018Z,36.80
2022-12-14T23:26:43.620Z,33.40
2022-12-14T23:30:10.391Z,35.20
2022-12-14T23:33:36.488Z,33.40
2022-12-14T23:37:03.184Z,33.93
2022-12-14T23:40:31.952Z,35.90
2022-12-14T23:43:58.835Z,37.88
2022-12-14T23:47:25.563Z,51.10
2022-12-14T23:50:52.113Z,60.95
2022-12-14T23:54:18.735Z,58.03
2022-12-14T23:57:45.603Z,56.05
